createdAt,value
2023-02-28T00:01:10.897Z,1.90
2023-02-28T00:03:38.781Z,1.80
2023-02-28T00:06:07.936Z,1.93
2023-02-28T00:08:35.652Z,2.03
2023-02-28T00:11:04.476Z,1.83
2023-02-28T00:13:32.144Z,2.00
2023-02-28T00:16:03.701Z,2.10
2023-02-28T00:18:32.710Z,2.17
2023-02-28T00:21:00.609Z,2.00
2023-02-28T00:23:28.783Z,2.07
2023-02-28T00:25:56.540Z,1.60
2023-02-28T00:28:24.436Z,1.97
2023-02-28T00:30:52.105Z,1.60
2023-02-28T00:33:19.780Z,2.00
2023-02-28T00:35:49.659Z,1.93
2023-02-28T00:38:17.461Z,1.87
2023-02-28T00:40:46.777Z,1.77
2023-02-28T00:43:14.473Z,1.93
2023-02-28T00:45:42.178Z,1.90
2023-02-28T00:48:09.713Z,2.00
2023-02-28T00:50:37.382Z,1.73
2023-02-28T00:53:06.331Z,2.43
2023-02-28T00:55:33.906Z,1.97
2023-02-28T00:58:01.470Z,2.07
2023-02-28T01:00:29.047Z,1.90
2023-02-28T01:02:56.611Z,1.90
2023-02-28T01:05:24.815Z,2.20
2023-02-28T01:07:52.376Z,2.27
2023-02-28T01:10:21.618Z,1.67
2023-02-28T01:12:49.185Z,2.13
2023-02-28T01:15:16.928Z,2.40
2023-02-28T01:17:44.477Z,2.50
2023-02-28T01:20:12.991Z,1.90
2023-02-28T01:22:41.004Z,1.83
2023-02-28T01:25:09.666Z,1.97
2023-02-28T01:27:40.395Z,2.13
2023-02-28T01:30:09.692Z,2.23
2023-02-28T01:32:37.653Z,2.57
2023-02-28T01:35:05.711Z,2.70
2023-02-28T01:37:33.328Z,2.77
2023-02-28T01:40:00.849Z,2.60
2023-02-28T01:42:28.580Z,2.57
2023-02-28T01:45:23.518Z,2.80
2023-02-28T01:47:52.900Z,2.40
2023-02-28T01:50:23.005Z,2.50
2023-02-28T01:52:51.547Z,2.30
2023-02-28T01:55:20.757Z,3.00
2023-02-28T01:57:54.612Z,2.93
2023-02-28T02:00:27.763Z,3.40
2023-02-28T02:02:56.862Z,3.00
2023-02-28T02:05:26.518Z,3.00
2023-02-28T02:07:56.923Z,3.73
2023-02-28T02:10:31.569Z,2.90
2023-02-28T02:13:10.799Z,4.07
2023-02-28T02:15:43.612Z,3.97
2023-02-28T02:18:17.686Z,3.77
2023-02-28T02:21:16.065Z,3.87
2023-02-28T02:24:10.137Z,3.57
2023-02-28T02:26:55.598Z,3.83
2023-02-28T02:29:48.785Z,4.13
2023-02-28T02:32:34.080Z,3.53
2023-02-28T02:35:11.327Z,3.60
2023-02-28T02:37:42.480Z,4.10
2023-02-28T02:40:14.967Z,4.20
2023-02-28T02:42:47.559Z,3.93
2023-02-28T02:45:18.121Z,4.27
2023-02-28T02:47:46.287Z,4.10
2023-02-28T02:50:19.877Z,4.77
2023-02-28T02:52:53.139Z,4.50
2023-02-28T02:55:22.632Z,3.33
2023-02-28T02:57:53.219Z,4.70
2023-02-28T03:00:24.311Z,4.40
2023-02-28T03:02:52.642Z,4.10
2023-02-28T03:05:25.621Z,4.23
2023-02-28T03:07:53.243Z,4.60
2023-02-28T03:10:36.926Z,4.23
2023-02-28T03:13:30.817Z,4.97
2023-02-28T03:16:08.219Z,5.00
2023-02-28T03:18:42.648Z,4.37
2023-02-28T03:21:18.403Z,4.13
2023-02-28T03:23:51.770Z,4.17
2023-02-28T03:26:21.585Z,4.53
2023-02-28T03:28:54.409Z,4.60
2023-02-28T03:31:24.727Z,4.20
2023-02-28T03:33:56.528Z,4.27
2023-02-28T03:36:28.041Z,3.90
2023-02-28T03:38:59.636Z,4.50
2023-02-28T03:41:30.603Z,3.63
2023-02-28T03:44:00.622Z,4.40
2023-02-28T03:46:31.027Z,3.93
2023-02-28T03:49:03.045Z,4.23
2023-02-28T03:51:33.173Z,3.93
2023-02-28T03:54:06.143Z,4.07
2023-02-28T03:56:36.861Z,4.00
2023-02-28T03:59:07.337Z,3.97
2023-02-28T04:01:37.696Z,4.30
2023-02-28T04:04:05.765Z,3.97
2023-02-28T04:06:36.144Z,3.93
2023-02-28T04:09:04.896Z,3.47
2023-02-28T04:11:35.698Z,3.93
2023-02-28T04:14:04.183Z,3.40
2023-02-28T04:16:35.510Z,3.50
2023-02-28T04:19:04.425Z,3.57
2023-02-28T04:21:32.799Z,3.73
2023-02-28T04:24:02.434Z,3.90
2023-02-28T04:26:31.739Z,3.50
2023-02-28T04:28:59.359Z,3.77
2023-02-28T04:31:27.203Z,3.50
2023-02-28T04:33:54.986Z,3.20
2023-02-28T04:36:24.595Z,3.20
2023-02-28T04:38:52.455Z,3.90
2023-02-28T04:41:21.641Z,3.27
2023-02-28T04:43:49.406Z,3.70
2023-02-28T04:46:16.991Z,3.70
2023-02-28T04:48:45.468Z,3.40
2023-02-28T04:51:15.406Z,3.40
2023-02-28T04:53:43.867Z,3.60
2023-02-28T04:56:13.982Z,3.33
2023-02-28T04:58:43.674Z,3.63
2023-02-28T05:01:20.014Z,3.60
2023-02-28T05:03:47.580Z,3.30
2023-02-28T05:06:15.906Z,3.33
2023-02-28T05:08:43.519Z,3.60
2023-02-28T05:11:16.572Z,3.30
2023-02-28T05:13:46.045Z,3.33
2023-02-28T05:16:13.678Z,3.43
2023-02-28T05:18:41.697Z,4.57
2023-02-28T05:21:25.775Z,3.60
2023-02-28T05:23:53.544Z,3.40
2023-02-28T05:26:21.261Z,3.37
2023-02-28T05:28:50.173Z,3.63
2023-02-28T05:31:17.773Z,3.57
2023-02-28T05:33:45.412Z,3.30
2023-02-28T05:36:13.016Z,3.10
2023-02-28T05:38:40.621Z,3.50
2023-02-28T05:41:09.139Z,3.40
2023-02-28T05:43:37.944Z,3.07
2023-02-28T05:46:07.873Z,3.37
2023-02-28T05:48:36.478Z,2.90
2023-02-28T05:51:04.513Z,3.10
2023-02-28T05:53:32.769Z,2.90
2023-02-28T05:56:00.600Z,4.00
2023-02-28T05:58:31.416Z,3.63
2023-02-28T06:00:59.820Z,3.30
2023-02-28T06:03:29.367Z,3.57
2023-02-28T06:05:56.952Z,3.13
2023-02-28T06:08:24.573Z,4.00
2023-02-28T06:10:52.316Z,3.80
2023-02-28T06:13:20.190Z,3.37
2023-02-28T06:15:47.765Z,3.70
2023-02-28T06:18:15.425Z,3.50
2023-02-28T06:20:44.426Z,3.73
2023-02-28T06:23:12.325Z,3.60
2023-02-28T06:25:39.927Z,3.10
2023-02-28T06:28:07.561Z,2.90
2023-02-28T06:30:35.174Z,3.30
2023-02-28T06:33:02.821Z,3.30
2023-02-28T06:35:30.490Z,3.03
2023-02-28T06:37:59.553Z,2.97
2023-02-28T06:40:27.565Z,2.60
2023-02-28T06:42:55.142Z,2.80
2023-02-28T06:45:22.750Z,2.90
2023-02-28T06:47:53.035Z,3.30
2023-02-28T06:50:21.387Z,3.47
2023-02-28T06:52:49.162Z,3.00
2023-02-28T06:55:19.031Z,2.90
2023-02-28T06:57:46.607Z,2.97
2023-02-28T07:00:15.710Z,2.87
2023-02-28T07:02:43.290Z,2.90
2023-02-28T07:05:10.964Z,2.97
2023-02-28T07:07:41.460Z,3.00
2023-02-28T07:10:10.058Z,3.10
2023-02-28T07:12:39.734Z,2.97
2023-02-28T07:15:08.603Z,2.77
2023-02-28T07:17:36.210Z,2.93
2023-02-28T07:20:05.522Z,3.00
2023-02-28T07:22:33.182Z,3.13
2023-02-28T07:25:00.771Z,3.10
2023-02-28T07:27:28.494Z,2.90
2023-02-28T07:29:57.646Z,2.83
2023-02-28T07:32:25.463Z,2.90
2023-02-28T07:34:53.403Z,2.40
2023-02-28T07:37:21.108Z,2.80
2023-02-28T07:39:48.826Z,2.93
2023-02-28T07:42:16.501Z,2.87
2023-02-28T07:44:44.159Z,2.60
2023-02-28T07:47:13.168Z,3.27
2023-02-28T07:49:40.957Z,2.90
2023-02-28T07:52:11.363Z,2.90
2023-02-28T07:54:39.860Z,2.53
2023-02-28T07:57:07.579Z,2.90
2023-02-28T07:59:35.265Z,3.20
2023-02-28T08:02:03.049Z,3.00
2023-02-28T08:04:33.844Z,2.83
2023-02-28T08:07:01.558Z,3.00
2023-02-28T08:09:30.790Z,3.17
2023-02-28T08:11:58.562Z,3.17
2023-02-28T08:14:26.391Z,3.10
2023-02-28T08:16:54.065Z,3.10
2023-02-28T08:19:21.758Z,2.90
2023-02-28T08:21:50.748Z,2.93
2023-02-28T08:24:18.358Z,3.07
2023-02-28T08:26:46.100Z,2.83
2023-02-28T08:29:13.726Z,3.30
2023-02-28T08:31:41.350Z,3.30
2023-02-28T08:34:09.279Z,3.20
2023-02-28T08:36:36.995Z,3.80
2023-02-28T08:39:06.243Z,4.07
2023-02-28T08:41:34.451Z,3.67
2023-02-28T08:44:02.403Z,3.10
2023-02-28T08:46:30.037Z,2.77
2023-02-28T08:49:00.858Z,3.40
2023-02-28T08:51:29.130Z,3.20
2023-02-28T08:54:00.199Z,3.07
2023-02-28T08:56:30.048Z,4.00
2023-02-28T08:58:58.712Z,3.20
2023-02-28T09:01:29.351Z,3.13
2023-02-28T09:03:58.056Z,3.07
2023-02-28T09:06:28.575Z,3.50
2023-02-28T09:08:59.300Z,3.50
2023-02-28T09:11:26.983Z,3.80
2023-02-28T09:13:57.291Z,3.60
2023-02-28T09:16:24.904Z,3.47
2023-02-28T09:18:52.604Z,3.37
2023-02-28T09:21:21.281Z,3.50
2023-02-28T09:23:50.400Z,3.40
2023-02-28T09:26:20.258Z,4.17
2023-02-28T09:28:48.082Z,3.13
2023-02-28T09:31:21.909Z,3.50
2023-02-28T09:33:49.924Z,3.27
2023-02-28T09:36:17.687Z,3.63
2023-02-28T09:38:48.121Z,3.70
2023-02-28T09:41:18.335Z,3.70
2023-02-28T09:43:48.352Z,3.60
2023-02-28T09:46:29.369Z,3.00
2023-02-28T09:48:57.841Z,2.83
2023-02-28T09:51:32.787Z,3.40
2023-02-28T09:54:02.276Z,2.67
2023-02-28T09:56:34.043Z,3.23
2023-02-28T09:59:04.869Z,2.80
2023-02-28T10:01:39.325Z,2.70
2023-02-28T10:04:11.368Z,2.90
2023-02-28T10:06:43.096Z,2.97
2023-02-28T10:09:15.147Z,3.17
2023-02-28T10:11:43.691Z,2.70
2023-02-28T10:14:15.312Z,3.17
2023-02-28T10:16:48.395Z,2.80
2023-02-28T10:19:18.563Z,3.57
2023-02-28T10:21:50.174Z,3.17
2023-02-28T10:24:23.031Z,3.50
2023-02-28T10:26:52.357Z,3.30
2023-02-28T10:29:20.063Z,3.63
2023-02-28T10:31:49.587Z,3.03
2023-02-28T10:34:17.345Z,2.70
2023-02-28T10:36:45.792Z,3.07
2023-02-28T10:39:39.081Z,3.30
2023-02-28T10:42:07.636Z,2.97
2023-02-28T10:44:35.403Z,3.20
2023-02-28T10:47:04.582Z,3.00
2023-02-28T10:49:32.275Z,3.43
2023-02-28T10:52:01.491Z,3.17
2023-02-28T10:54:34.766Z,3.90
2023-02-28T10:57:11.172Z,3.60
2023-02-28T10:59:38.782Z,3.80
2023-02-28T11:05:05.293Z,3.93
2023-02-28T11:07:41.449Z,3.30
2023-02-28T11:10:21.295Z,3.47
2023-02-28T11:12:53.123Z,3.70
2023-02-28T11:15:24.524Z,3.63
2023-02-28T11:17:57.845Z,3.80
2023-02-28T11:20:27.640Z,3.80
2023-02-28T11:22:56.046Z,3.67
2023-02-28T11:25:25.395Z,3.73
2023-02-28T11:27:54.433Z,4.30
2023-02-28T11:30:30.944Z,3.93
2023-02-28T11:33:00.930Z,3.13
2023-02-28T11:35:31.841Z,3.40
2023-02-28T11:38:00.334Z,3.43
2023-02-28T11:40:36.132Z,3.47
2023-02-28T11:43:09.344Z,3.40
2023-02-28T11:45:47.914Z,4.17
2023-02-28T11:48:23.453Z,3.87
2023-02-28T11:50:59.513Z,3.57
2023-02-28T11:53:41.786Z,4.07
2023-02-28T11:56:13.335Z,3.37
2023-02-28T11:58:48.943Z,4.20
2023-02-28T12:01:40.066Z,3.80
2023-02-28T12:04:19.704Z,3.50
2023-02-28T12:06:52.823Z,3.27
2023-02-28T12:09:34.633Z,3.40
2023-02-28T12:12:08.010Z,3.10
2023-02-28T12:14:52.083Z,3.63
2023-02-28T12:17:28.381Z,3.73
2023-02-28T12:20:04.660Z,3.63
2023-02-28T12:22:33.732Z,3.80
2023-02-28T12:25:37.003Z,3.67
2023-02-28T12:28:04.844Z,3.57
2023-02-28T12:30:34.819Z,3.50
2023-02-28T12:33:06.192Z,3.40
2023-02-28T12:35:37.826Z,3.50
2023-02-28T12:38:08.174Z,3.50
2023-02-28T12:40:45.126Z,3.53
2023-02-28T12:43:15.850Z,3.43
2023-02-28T12:45:46.621Z,3.70
2023-02-28T12:48:17.631Z,3.70
2023-02-28T12:50:46.625Z,3.83
2023-02-28T12:53:19.697Z,4.03
2023-02-28T12:55:51.712Z,3.60
2023-02-28T12:58:24.594Z,3.90
2023-02-28T13:01:08.811Z,3.70
2023-02-28T13:03:55.097Z,3.87
2023-02-28T13:06:34.872Z,3.40
2023-02-28T13:09:07.950Z,3.30
2023-02-28T13:11:41.673Z,3.70
2023-02-28T13:14:31.357Z,3.30
2023-02-28T13:17:02.333Z,3.63
2023-02-28T13:19:31.413Z,4.23
2023-02-28T13:22:01.233Z,3.27
2023-02-28T13:24:41.532Z,4.40
2023-02-28T13:27:37.638Z,3.43
2023-02-28T13:30:38.487Z,4.23
2023-02-28T13:33:27.678Z,3.60
2023-02-28T13:36:27.525Z,3.87
2023-02-28T13:39:00.970Z,4.30
2023-02-28T13:41:48.331Z,4.40
2023-02-28T13:44:23.983Z,4.07
2023-02-28T13:47:21.177Z,4.17
2023-02-28T13:49:48.752Z,3.93
2023-02-28T13:52:20.249Z,4.27
2023-02-28T13:55:05.975Z,4.80
2023-02-28T13:57:46.017Z,4.07
2023-02-28T14:00:25.672Z,4.07
2023-02-28T14:03:19.543Z,4.90
2023-02-28T14:05:47.500Z,4.00
2023-02-28T14:08:18.770Z,4.00
2023-02-28T14:10:49.379Z,4.57
2023-02-28T14:13:45.848Z,4.00
2023-02-28T14:16:15.891Z,4.07
2023-02-28T14:18:44.968Z,4.50
2023-02-28T14:21:17.768Z,4.50
2023-02-28T14:24:05.884Z,4.13
2023-02-28T14:26:46.397Z,4.47
2023-02-28T14:29:28.794Z,4.30
2023-02-28T14:32:00.742Z,4.77
2023-02-28T14:34:37.368Z,5.23
2023-02-28T14:37:05.745Z,4.70
2023-02-28T14:39:33.764Z,4.50
2023-02-28T14:42:05.710Z,4.67
2023-02-28T14:44:33.755Z,4.83
2023-02-28T14:47:05.364Z,4.80
2023-02-28T14:49:34.735Z,4.27
2023-02-28T14:52:10.542Z,4.67
2023-02-28T14:54:38.681Z,5.00
2023-02-28T14:57:07.794Z,5.03
2023-02-28T14:59:37.938Z,4.63
2023-02-28T15:02:20.315Z,5.17
2023-02-28T15:04:55.782Z,4.97
2023-02-28T15:07:29.215Z,4.73
2023-02-28T15:10:15.830Z,4.70
2023-02-28T15:12:51.038Z,4.67
2023-02-28T15:15:19.041Z,4.40
2023-02-28T15:17:48.235Z,4.63
2023-02-28T15:20:17.340Z,4.53
2023-02-28T15:22:45.468Z,4.67
2023-02-28T15:25:16.348Z,4.60
2023-02-28T15:27:49.390Z,4.67
2023-02-28T15:30:19.666Z,4.50
2023-02-28T15:32:47.496Z,4.93
2023-02-28T15:35:28.252Z,5.00
2023-02-28T15:37:57.691Z,4.73
2023-02-28T15:40:28.548Z,4.60
2023-02-28T15:43:07.546Z,5.03
2023-02-28T15:45:39.472Z,4.50
2023-02-28T15:48:14.282Z,4.77
2023-02-28T15:50:42.557Z,4.80
2023-02-28T15:53:15.459Z,4.90
2023-02-28T15:55:43.325Z,4.40
2023-02-28T15:58:14.429Z,4.17
2023-02-28T16:00:46.490Z,5.20
2023-02-28T16:03:37.745Z,4.97
2023-02-28T16:06:34.584Z,4.60
2023-02-28T16:09:02.301Z,4.67
2023-02-28T16:11:30.355Z,4.57
2023-02-28T16:13:59.743Z,5.23
2023-02-28T16:16:28.138Z,4.80
2023-02-28T16:18:56.033Z,4.90
2023-02-28T16:21:23.700Z,4.63
2023-02-28T16:23:51.302Z,5.20
2023-02-28T16:26:23.550Z,4.43
2023-02-28T16:28:51.509Z,4.67
2023-02-28T16:31:20.617Z,5.47
2023-02-28T16:33:48.587Z,4.27
2023-02-28T16:36:18.594Z,5.40
2023-02-28T16:38:46.335Z,5.70
2023-02-28T16:41:19.854Z,6.03
2023-02-28T16:43:49.603Z,6.00
2023-02-28T16:46:18.025Z,5.07
2023-02-28T16:48:48.880Z,5.30
2023-02-28T16:51:17.753Z,5.10
2023-02-28T16:53:45.967Z,5.73
2023-02-28T16:56:17.967Z,5.77
2023-02-28T16:58:45.715Z,5.10
2023-02-28T17:01:13.526Z,6.23
2023-02-28T17:03:41.505Z,6.10
2023-02-28T17:06:19.420Z,5.07
2023-02-28T17:08:47.096Z,5.23
2023-02-28T17:11:14.725Z,5.00
2023-02-28T17:13:42.335Z,4.87
2023-02-28T17:16:17.086Z,5.00
2023-02-28T17:18:44.693Z,4.60
2023-02-28T17:21:16.272Z,5.40
2023-02-28T17:23:43.865Z,6.13
2023-02-28T17:26:15.712Z,4.97
2023-02-28T17:28:43.347Z,5.47
2023-02-28T17:31:11.354Z,5.27
2023-02-28T17:33:39.108Z,4.87
2023-02-28T17:36:07.795Z,5.70
2023-02-28T17:38:36.819Z,5.43
2023-02-28T17:41:04.395Z,6.03
2023-02-28T17:43:31.988Z,5.73
2023-02-28T17:45:59.812Z,5.83
2023-02-28T17:48:27.765Z,5.07
2023-02-28T17:50:58.330Z,5.13
2023-02-28T17:53:28.023Z,5.53
2023-02-28T17:55:57.077Z,5.43
2023-02-28T17:58:24.759Z,5.20
2023-02-28T18:00:55.366Z,5.30
2023-02-28T18:03:23.074Z,5.27
2023-02-28T18:05:50.883Z,5.93
2023-02-28T18:08:19.125Z,5.90
2023-02-28T18:10:47.228Z,6.37
2023-02-28T18:13:16.224Z,5.27
2023-02-28T18:15:43.961Z,5.43
2023-02-28T18:18:11.707Z,5.17
2023-02-28T18:20:39.321Z,5.67
2023-02-28T18:23:07.196Z,5.97
2023-02-28T18:25:34.861Z,6.10
2023-02-28T18:28:02.609Z,5.20
2023-02-28T18:30:34.082Z,5.27
2023-02-28T18:33:02.882Z,5.10
2023-02-28T18:35:37.330Z,4.87
2023-02-28T18:38:08.085Z,6.23
2023-02-28T18:40:36.281Z,5.70
2023-02-28T18:43:04.504Z,5.00
2023-02-28T18:45:36.968Z,6.50
2023-02-28T18:48:05.085Z,5.23
2023-02-28T18:50:32.919Z,5.50
2023-02-28T18:53:02.774Z,6.23
2023-02-28T18:55:30.436Z,6.10
2023-02-28T18:57:58.032Z,6.33
2023-02-28T19:00:28.849Z,5.73
2023-02-28T19:02:58.249Z,5.27
2023-02-28T19:05:27.861Z,5.90
2023-02-28T19:07:55.669Z,5.73
2023-02-28T19:10:23.357Z,6.00
2023-02-28T19:12:50.947Z,5.73
2023-02-28T19:15:18.758Z,5.73
2023-02-28T19:17:46.624Z,7.10
2023-02-28T19:20:16.507Z,6.30
2023-02-28T19:22:44.502Z,6.10
2023-02-28T19:25:12.385Z,6.10
2023-02-28T19:27:40.022Z,6.27
2023-02-28T19:30:09.477Z,6.00
2023-02-28T19:32:37.193Z,6.13
2023-02-28T19:35:05.362Z,6.47
2023-02-28T19:37:34.318Z,6.00
2023-02-28T19:40:02.375Z,6.43
2023-02-28T19:42:33.065Z,6.10
2023-02-28T19:45:00.775Z,5.17
2023-02-28T19:47:29.003Z,5.10
2023-02-28T19:49:56.659Z,5.43
2023-02-28T19:52:24.959Z,5.70
2023-02-28T19:54:53.964Z,5.90
2023-02-28T19:57:21.557Z,5.90
2023-02-28T19:59:50.486Z,5.37
2023-02-28T20:02:20.191Z,5.27
2023-02-28T20:04:48.544Z,6.03
2023-02-28T20:07:16.211Z,5.63
2023-02-28T20:09:44.685Z,5.10
2023-02-28T20:12:23.545Z,4.67
2023-02-28T20:14:51.626Z,5.00
2023-02-28T20:17:19.262Z,5.57
2023-02-28T20:19:46.958Z,6.07
2023-02-28T20:22:14.752Z,5.17
2023-02-28T20:24:42.481Z,5.93
2023-02-28T20:27:10.474Z,5.30
2023-02-28T20:29:40.225Z,5.30
2023-02-28T20:32:10.413Z,5.37
2023-02-28T20:34:37.987Z,4.93
2023-02-28T20:37:05.596Z,5.07
2023-02-28T20:39:33.148Z,5.43
2023-02-28T20:42:00.687Z,4.93
2023-02-28T20:44:28.307Z,4.70
2023-02-28T20:46:57.274Z,5.50
2023-02-28T20:49:24.835Z,5.30
2023-02-28T20:51:52.388Z,5.23
2023-02-28T20:54:20.186Z,5.50
2023-02-28T20:56:47.808Z,5.57
2023-02-28T20:59:15.367Z,5.40
2023-02-28T21:01:43.719Z,5.60
2023-02-28T21:04:12.669Z,6.00
2023-02-28T21:06:43.059Z,5.67
2023-02-28T21:09:12.724Z,5.20
2023-02-28T21:11:40.918Z,5.60
2023-02-28T21:14:10.183Z,5.50
2023-02-28T21:16:38.357Z,6.83
2023-02-28T21:19:06.010Z,5.63
2023-02-28T21:24:22.762Z,6.13
2023-02-28T21:26:51.810Z,6.03
2023-02-28T21:29:19.408Z,6.20
2023-02-28T21:31:47.028Z,5.90
2023-02-28T21:34:15.237Z,7.03
2023-02-28T21:36:45.450Z,6.57
2023-02-28T21:39:15.597Z,5.67
2023-02-28T21:41:44.589Z,6.07
2023-02-28T21:44:18.414Z,6.47
2023-02-28T21:46:47.070Z,6.10
2023-02-28T21:49:15.538Z,6.10
2023-02-28T21:51:43.616Z,6.43
2023-02-28T21:54:12.090Z,6.40
2023-02-28T21:56:39.841Z,5.87
2023-02-28T21:59:09.587Z,6.60
2023-02-28T22:01:38.867Z,6.03
2023-02-28T22:04:08.058Z,5.90
2023-02-28T22:06:37.224Z,6.30
2023-02-28T22:09:07.585Z,6.90
2023-02-28T22:11:36.507Z,6.43
2023-02-28T22:14:04.121Z,6.63
2023-02-28T22:16:49.562Z,7.10
2023-02-28T22:19:18.286Z,7.23
2023-02-28T22:21:47.328Z,7.10
2023-02-28T22:24:15.661Z,7.77
2023-02-28T22:26:43.292Z,7.43
2023-02-28T22:29:10.895Z,7.03
2023-02-28T22:31:39.895Z,7.63
2023-02-28T22:34:09.544Z,7.07
2023-02-28T22:36:37.853Z,7.03
2023-02-28T22:39:06.038Z,6.70
2023-02-28T22:41:33.737Z,6.93
2023-02-28T22:44:03.543Z,6.63
2023-02-28T22:46:33.269Z,7.90
2023-02-28T22:49:03.279Z,8.10
2023-02-28T22:51:31.299Z,7.17
2023-02-28T22:53:59.070Z,7.17
2023-02-28T22:56:29.429Z,7.80
2023-02-28T22:58:58.954Z,8.03
2023-02-28T23:01:28.687Z,7.50
2023-02-28T23:03:56.450Z,8.40
2023-02-28T23:06:27.959Z,6.93
2023-02-28T23:08:59.170Z,7.67
2023-02-28T23:11:29.085Z,7.90
2023-02-28T23:13:59.661Z,7.97
2023-02-28T23:16:32.241Z,7.60
2023-02-28T23:19:01.164Z,8.47
2023-02-28T23:21:30.233Z,7.87
2023-02-28T23:23:58.099Z,8.30
2023-02-28T23:26:26.038Z,7.53
2023-02-28T23:28:53.584Z,8.23
2023-02-28T23:31:21.338Z,8.70
2023-02-28T23:33:49.385Z,7.77
2023-02-28T23:36:17.856Z,8.63
2023-02-28T23:38:49.661Z,8.43
2023-02-28T23:41:17.817Z,8.60
2023-02-28T23:43:45.659Z,8.37
2023-02-28T23:46:13.928Z,9.03
2023-02-28T23:48:42.057Z,8.27
2023-02-28T23:51:11.300Z,7.90
2023-02-28T23:53:40.106Z,8.70
2023-02-28T23:56:11.988Z,8.43
2023-02-28T23:58:39.534Z,8.27
